createdAt,value
2019-05-09T00:00:24.736Z,18.50
2019-05-09T00:01:30.577Z,18.93
2019-05-09T00:02:39.110Z,18.53
2019-05-09T00:03:44.288Z,19.63
2019-05-09T00:04:48.777Z,18.37
2019-05-09T00:05:54.206Z,18.80
2019-05-09T00:06:58.568Z,18.40
2019-05-09T00:08:03.484Z,18.37
2019-05-09T00:09:07.832Z,17.07
2019-05-09T00:10:14.066Z,16.53
2019-05-09T00:11:17.860Z,16.70
2019-05-09T00:12:23.416Z,16.00
2019-05-09T00:13:27.825Z,15.47
2019-05-09T00:14:34.062Z,14.97
2019-05-09T00:15:37.815Z,15.13
2019-05-09T00:16:43.930Z,13.87
2019-05-09T00:17:47.847Z,14.30
2019-05-09T00:18:53.475Z,13.63
2019-05-09T00:20:03.399Z,12.70
2019-05-09T00:21:13.314Z,12.47
2019-05-09T00:22:17.195Z,11.83
2019-05-09T00:23:21.367Z,13.07
2019-05-09T00:24:25.595Z,12.13
2019-05-09T00:25:29.692Z,11.23
2019-05-09T00:26:34.045Z,10.83
2019-05-09T00:27:38.300Z,10.23
2019-05-09T00:28:45.069Z,10.43
2019-05-09T00:29:49.764Z,11.30
2019-05-09T00:31:03.421Z,11.40
2019-05-09T00:32:18.104Z,11.33
2019-05-09T00:33:25.775Z,10.73
2019-05-09T00:34:48.904Z,10.10
2019-05-09T00:35:53.456Z,10.43
2019-05-09T00:36:57.664Z,10.37
2019-05-09T00:38:04.527Z,9.90
2019-05-09T00:39:08.732Z,9.33
2019-05-09T00:40:13.279Z,10.27
2019-05-09T00:41:17.584Z,9.20
2019-05-09T00:42:23.975Z,9.53
2019-05-09T00:43:27.640Z,9.50
2019-05-09T00:44:33.914Z,9.70
2019-05-09T00:46:06.576Z,9.33
2019-05-09T00:47:19.963Z,9.47
2019-05-09T00:48:27.435Z,10.20
2019-05-09T00:49:34.004Z,8.57
2019-05-09T00:50:37.420Z,9.47
2019-05-09T00:51:43.614Z,8.80
2019-05-09T00:52:47.400Z,7.40
2019-05-09T00:53:53.488Z,8.77
2019-05-09T00:54:57.411Z,8.10
2019-05-09T00:56:03.876Z,7.87
2019-05-09T00:57:07.440Z,7.23
2019-05-09T00:58:13.587Z,7.57
2019-05-09T00:59:17.455Z,7.53
2019-05-09T01:00:24.105Z,7.47
2019-05-09T01:01:27.452Z,7.40
2019-05-09T01:02:33.925Z,6.70
2019-05-09T01:03:37.467Z,8.07
2019-05-09T01:04:43.700Z,7.00
2019-05-09T01:05:47.649Z,6.37
2019-05-09T01:06:53.833Z,7.67
2019-05-09T01:07:57.700Z,6.87
2019-05-09T01:09:03.640Z,6.60
2019-05-09T01:10:07.748Z,6.53
2019-05-09T01:11:15.485Z,7.50
2019-05-09T01:12:18.341Z,6.73
2019-05-09T01:13:23.196Z,6.70
2019-05-09T01:14:27.440Z,6.37
2019-05-09T01:15:33.448Z,6.10
2019-05-09T01:16:37.501Z,6.00
2019-05-09T01:17:44.014Z,5.97
2019-05-09T01:18:47.391Z,6.40
2019-05-09T01:19:53.773Z,6.07
2019-05-09T01:20:57.400Z,6.17
2019-05-09T01:22:03.640Z,6.33
2019-05-09T01:23:07.464Z,6.53
2019-05-09T01:24:13.736Z,6.20
2019-05-09T01:25:17.521Z,6.03
2019-05-09T01:26:23.290Z,5.97
2019-05-09T01:27:27.513Z,5.60
2019-05-09T01:28:33.674Z,5.80
2019-05-09T01:29:37.521Z,6.00
2019-05-09T01:30:43.690Z,5.73
2019-05-09T01:31:47.507Z,6.40
2019-05-09T01:33:10.620Z,6.30
2019-05-09T01:34:27.545Z,5.33
2019-05-09T01:35:33.847Z,6.10
2019-05-09T01:36:55.340Z,5.57
2019-05-09T01:37:59.547Z,5.30
2019-05-09T01:39:04.308Z,5.53
2019-05-09T01:40:08.514Z,4.90
2019-05-09T01:41:27.234Z,5.53
2019-05-09T01:42:18.493Z,5.20
2019-05-09T01:43:24.411Z,5.47
2019-05-09T01:44:28.806Z,4.83
2019-05-09T01:45:34.240Z,5.33
2019-05-09T01:46:38.484Z,5.13
2019-05-09T01:47:43.076Z,5.50
2019-05-09T01:48:47.311Z,4.93
2019-05-09T01:49:53.735Z,4.63
2019-05-09T01:50:57.328Z,5.43
2019-05-09T01:52:03.353Z,4.83
2019-05-09T01:53:07.320Z,5.30
2019-05-09T01:54:13.254Z,5.10
2019-05-09T01:55:17.285Z,5.03
2019-05-09T01:56:23.433Z,4.77
2019-05-09T01:57:27.257Z,4.83
2019-05-09T01:58:34.371Z,4.07
2019-05-09T01:59:38.004Z,4.73
2019-05-09T02:00:43.576Z,4.57
2019-05-09T02:01:47.805Z,4.67
2019-05-09T02:02:54.041Z,4.77
2019-05-09T02:03:58.195Z,4.70
2019-05-09T02:05:04.134Z,4.90
2019-05-09T02:06:08.244Z,5.23
2019-05-09T02:07:13.293Z,5.27
2019-05-09T02:08:17.679Z,5.03
2019-05-09T02:09:23.422Z,4.77
2019-05-09T02:10:27.723Z,5.10
2019-05-09T02:11:40.178Z,5.13
2019-05-09T02:12:37.736Z,5.50
2019-05-09T02:13:44.069Z,5.10
2019-05-09T02:15:06.700Z,5.00
2019-05-09T02:16:29.856Z,5.00
2019-05-09T02:18:01.086Z,5.60
2019-05-09T02:19:19.519Z,5.53
2019-05-09T02:20:24.224Z,5.83
2019-05-09T02:21:28.527Z,6.20
2019-05-09T02:22:36.314Z,5.50
2019-05-09T02:23:40.395Z,5.53
2019-05-09T02:24:44.595Z,5.50
2019-05-09T02:25:48.788Z,5.67
2019-05-09T02:26:53.411Z,5.70
2019-05-09T02:27:57.635Z,5.20
2019-05-09T02:29:03.281Z,5.20
2019-05-09T02:30:07.598Z,5.70
2019-05-09T02:31:15.754Z,5.17
2019-05-09T02:32:17.645Z,5.17
2019-05-09T02:33:24.798Z,5.30
2019-05-09T02:34:27.632Z,5.70
2019-05-09T02:35:39.383Z,5.53
2019-05-09T02:36:38.488Z,5.43
2019-05-09T02:37:42.839Z,5.80
2019-05-09T02:38:48.666Z,5.90
2019-05-09T02:39:52.806Z,5.50
2019-05-09T02:40:59.499Z,6.07
2019-05-09T02:42:09.099Z,5.73
2019-05-09T02:43:09.880Z,5.67
2019-05-09T02:44:14.356Z,5.60
2019-05-09T02:45:19.481Z,6.57
2019-05-09T02:46:40.973Z,5.87
2019-05-09T02:47:48.864Z,6.27
2019-05-09T02:48:51.262Z,4.97
2019-05-09T02:49:55.432Z,6.33
2019-05-09T02:51:00.460Z,5.90
2019-05-09T02:52:04.810Z,5.97
2019-05-09T02:53:08.994Z,5.90
2019-05-09T02:54:13.232Z,5.90
2019-05-09T02:55:18.473Z,5.63
2019-05-09T02:56:22.901Z,5.97
2019-05-09T02:57:29.425Z,6.10
2019-05-09T02:58:38.951Z,5.57
2019-05-09T02:59:53.258Z,5.73
2019-05-09T03:01:04.311Z,5.43
2019-05-09T03:02:28.682Z,5.67
2019-05-09T03:03:35.104Z,6.17
2019-05-09T03:04:39.362Z,6.37
2019-05-09T03:05:43.549Z,5.60
2019-05-09T03:06:49.204Z,6.27
2019-05-09T03:07:53.774Z,7.23
2019-05-09T03:08:59.365Z,6.77
2019-05-09T03:10:04.076Z,6.30
2019-05-09T03:11:09.787Z,6.10
2019-05-09T03:12:26.811Z,6.10
2019-05-09T03:13:19.907Z,5.97
2019-05-09T03:14:24.076Z,6.60
2019-05-09T03:15:29.391Z,6.10
2019-05-09T03:16:33.756Z,6.17
2019-05-09T03:17:38.600Z,6.63
2019-05-09T03:18:42.932Z,6.33
2019-05-09T03:19:48.817Z,6.50
2019-05-09T03:21:11.862Z,6.57
2019-05-09T03:22:19.579Z,6.23
2019-05-09T03:23:23.756Z,6.47
2019-05-09T03:24:28.845Z,6.33
2019-05-09T03:25:33.592Z,6.57
2019-05-09T03:26:39.825Z,6.40
2019-05-09T03:27:48.386Z,6.40
2019-05-09T03:29:15.370Z,6.80
2019-05-09T03:30:23.793Z,5.87
2019-05-09T03:31:29.841Z,5.90
2019-05-09T03:32:34.294Z,6.47
2019-05-09T03:33:40.575Z,6.43
2019-05-09T03:34:44.268Z,6.50
2019-05-09T03:35:48.432Z,6.47
2019-05-09T03:36:52.596Z,6.20
2019-05-09T03:38:08.148Z,6.13
2019-05-09T03:39:11.818Z,6.23
2019-05-09T03:40:17.956Z,6.00
2019-05-09T03:41:21.793Z,6.00
2019-05-09T03:42:38.048Z,5.50
2019-05-09T03:43:31.842Z,6.07
2019-05-09T03:44:38.324Z,5.80
2019-05-09T03:45:48.432Z,6.30
2019-05-09T03:47:29.463Z,5.67
2019-05-09T03:48:38.959Z,5.80
2019-05-09T03:49:43.133Z,5.47
2019-05-09T03:50:48.714Z,5.20
2019-05-09T03:51:52.960Z,5.97
2019-05-09T03:52:57.980Z,5.87
2019-05-09T03:54:02.370Z,5.63
2019-05-09T03:55:08.008Z,5.63
2019-05-09T03:56:14.379Z,5.97
2019-05-09T03:57:28.225Z,5.93
2019-05-09T03:58:31.926Z,6.50
2019-05-09T03:59:38.055Z,5.87
2019-05-09T04:00:41.939Z,6.23
2019-05-09T04:01:49.382Z,5.93
2019-05-09T04:02:51.996Z,5.37
2019-05-09T04:03:58.260Z,5.77
2019-05-09T04:05:02.036Z,5.83
2019-05-09T04:06:08.259Z,5.70
2019-05-09T04:07:12.011Z,5.63
2019-05-09T04:08:22.181Z,6.23
2019-05-09T04:09:27.384Z,5.40
2019-05-09T04:10:31.752Z,6.47
2019-05-09T04:11:37.944Z,6.07
2019-05-09T04:12:52.787Z,5.87
2019-05-09T04:13:55.116Z,5.27
2019-05-09T04:14:59.293Z,5.60
2019-05-09T04:16:03.506Z,5.73
2019-05-09T04:17:07.977Z,5.77
2019-05-09T04:18:12.276Z,5.70
2019-05-09T04:19:17.526Z,5.70
2019-05-09T04:20:21.750Z,5.70
2019-05-09T04:21:27.901Z,6.20
2019-05-09T04:22:31.760Z,5.93
2019-05-09T04:23:37.867Z,6.83
2019-05-09T04:24:41.812Z,6.03
2019-05-09T04:25:54.704Z,6.40
2019-05-09T04:27:07.778Z,6.63
2019-05-09T04:28:12.204Z,6.70
2019-05-09T04:29:18.359Z,6.13
2019-05-09T04:30:22.236Z,5.90
2019-05-09T04:31:27.987Z,5.73
2019-05-09T04:32:32.303Z,6.10
2019-05-09T04:33:38.334Z,6.00
2019-05-09T04:34:42.451Z,5.80
2019-05-09T04:35:47.588Z,6.33
2019-05-09T04:36:51.916Z,6.27
2019-05-09T04:37:58.289Z,5.67
2019-05-09T04:39:01.918Z,5.90
2019-05-09T04:40:08.087Z,6.43
2019-05-09T04:41:16.338Z,5.90
2019-05-09T04:42:18.489Z,5.47
2019-05-09T04:43:34.284Z,24.77
2019-05-09T04:44:34.056Z,21.97
2019-05-09T04:45:53.242Z,6.60
2019-05-09T04:46:59.890Z,5.87
2019-05-09T04:48:02.030Z,6.20
2019-05-09T04:49:08.072Z,6.03
2019-05-09T04:50:15.432Z,5.70
2019-05-09T04:51:18.107Z,6.50
2019-05-09T04:52:22.244Z,5.93
2019-05-09T04:53:28.501Z,6.17
2019-05-09T04:54:32.294Z,5.87
2019-05-09T04:55:37.695Z,5.73
2019-05-09T04:56:42.312Z,5.70
2019-05-09T04:57:48.500Z,5.60
2019-05-09T04:58:52.339Z,5.67
2019-05-09T04:59:57.546Z,5.60
2019-05-09T05:01:15.196Z,5.50
2019-05-09T05:02:31.732Z,5.00
2019-05-09T05:03:37.602Z,5.33
2019-05-09T05:04:41.908Z,5.13
2019-05-09T05:05:48.175Z,5.80
2019-05-09T05:06:51.927Z,5.80
2019-05-09T05:07:57.339Z,5.63
2019-05-09T05:09:01.612Z,4.97
2019-05-09T05:10:08.814Z,5.50
2019-05-09T05:11:12.271Z,5.30
2019-05-09T05:12:18.550Z,5.30
2019-05-09T05:13:26.764Z,5.07
2019-05-09T05:14:30.712Z,5.70
2019-05-09T05:19:41.840Z,4.53
2019-05-09T05:20:48.082Z,5.37
2019-05-09T05:21:51.824Z,4.20
2019-05-09T05:23:01.444Z,4.20
2019-05-09T05:24:18.461Z,4.10
2019-05-09T05:25:22.627Z,4.17
2019-05-09T05:26:27.705Z,3.57
2019-05-09T05:27:32.032Z,3.60
2019-05-09T05:28:38.028Z,3.00
2019-05-09T05:29:41.949Z,3.20
2019-05-09T05:30:47.702Z,2.77
2019-05-09T05:31:52.611Z,3.13
2019-05-09T05:33:02.683Z,3.07
2019-05-09T05:34:10.955Z,3.40
2019-05-09T05:35:21.155Z,8.37
2019-05-09T05:36:25.312Z,3.20
2019-05-09T05:37:29.500Z,3.67
2019-05-09T05:38:33.720Z,4.70
2019-05-09T05:39:37.815Z,12.13
2019-05-09T05:40:46.087Z,4.57
2019-05-09T05:41:48.393Z,3.10
2019-05-09T05:42:52.690Z,3.63
2019-05-09T05:43:58.029Z,3.30
2019-05-09T05:45:02.308Z,3.87
2019-05-09T05:46:14.799Z,3.00
2019-05-09T05:47:31.298Z,2.83
2019-05-09T05:48:37.770Z,4.20
2019-05-09T05:49:41.583Z,3.30
2019-05-09T05:50:45.796Z,19.63
2019-05-09T05:51:49.968Z,4.60
2019-05-09T05:52:54.128Z,4.30
2019-05-09T05:54:01.221Z,14.40
2019-05-09T05:55:04.142Z,4.03
2019-05-09T05:56:08.640Z,5.47
2019-05-09T05:57:12.874Z,8.47
2019-05-09T05:58:18.003Z,12.03
2019-05-09T05:59:22.315Z,4.67
2019-05-09T06:00:28.578Z,4.60
2019-05-09T06:01:32.633Z,4.67
2019-05-09T06:02:38.497Z,5.93
2019-05-09T06:03:42.779Z,11.17
2019-05-09T06:04:48.574Z,6.00
2019-05-09T06:05:52.957Z,4.67
2019-05-09T06:06:58.810Z,4.83
2019-05-09T06:08:03.105Z,5.40
2019-05-09T06:09:08.395Z,5.23
2019-05-09T06:10:12.564Z,6.23
2019-05-09T06:11:17.736Z,4.27
2019-05-09T06:12:22.035Z,3.97
2019-05-09T06:13:27.577Z,4.47
2019-05-09T06:14:31.880Z,3.20
2019-05-09T06:15:37.864Z,3.00
2019-05-09T06:16:41.920Z,2.60
2019-05-09T06:17:48.218Z,2.87
2019-05-09T06:18:51.912Z,2.90
2019-05-09T06:19:58.671Z,2.80
2019-05-09T06:21:01.955Z,2.90
2019-05-09T06:22:08.145Z,2.83
2019-05-09T06:23:11.985Z,3.13
2019-05-09T06:24:17.753Z,2.77
2019-05-09T06:25:22.085Z,2.70
2019-05-09T06:26:28.973Z,2.60
2019-05-09T06:27:32.099Z,2.73
2019-05-09T06:28:37.675Z,2.67
2019-05-09T06:29:41.980Z,3.37
2019-05-09T06:30:47.664Z,2.83
2019-05-09T06:31:52.007Z,2.73
2019-05-09T06:32:58.035Z,3.27
2019-05-09T06:34:02.037Z,2.63
2019-05-09T06:35:08.337Z,2.90
2019-05-09T06:36:12.220Z,3.40
2019-05-09T06:37:18.374Z,2.67
2019-05-09T06:38:22.239Z,2.60
2019-05-09T06:39:28.341Z,3.17
2019-05-09T06:40:32.248Z,3.07
2019-05-09T06:41:37.882Z,2.60
2019-05-09T06:42:42.059Z,2.93
2019-05-09T06:43:49.665Z,3.17
2019-05-09T06:45:27.805Z,2.23
2019-05-09T06:46:48.151Z,2.30
2019-05-09T06:47:52.087Z,3.33
2019-05-09T06:49:17.874Z,3.27
2019-05-09T06:50:07.943Z,2.60
2019-05-09T06:51:12.292Z,2.40
2019-05-09T06:52:17.464Z,2.83
2019-05-09T06:53:21.789Z,2.60
2019-05-09T06:54:27.844Z,2.87
2019-05-09T06:55:31.776Z,2.93
2019-05-09T06:56:38.027Z,2.60
2019-05-09T06:57:43.086Z,2.93
2019-05-09T06:58:48.136Z,2.40
2019-05-09T06:59:52.486Z,3.10
2019-05-09T07:01:02.781Z,2.50
2019-05-09T07:02:23.427Z,2.73
2019-05-09T07:03:28.547Z,2.50
2019-05-09T07:04:42.551Z,2.43
2019-05-09T07:05:59.988Z,2.70
2019-05-09T07:07:11.127Z,2.60
2019-05-09T07:08:27.282Z,2.73
2019-05-09T07:09:34.184Z,2.70
2019-05-09T07:10:38.367Z,2.80
2019-05-09T07:11:42.528Z,2.97
2019-05-09T07:12:48.570Z,2.80
2019-05-09T07:13:52.564Z,3.00
2019-05-09T07:14:58.143Z,2.60
2019-05-09T07:16:02.727Z,2.77
2019-05-09T07:17:08.334Z,2.20
2019-05-09T07:18:12.773Z,2.77
2019-05-09T07:19:17.493Z,2.73
2019-05-09T07:20:21.759Z,2.73
2019-05-09T07:21:28.594Z,2.53
2019-05-09T07:22:39.011Z,2.70
2019-05-09T07:23:42.267Z,3.13
2019-05-09T07:25:18.630Z,2.70
2019-05-09T07:26:28.128Z,2.90
2019-05-09T07:27:32.669Z,2.70
2019-05-09T07:28:37.619Z,3.17
2019-05-09T07:29:41.940Z,2.40
2019-05-09T07:31:03.704Z,2.70
2019-05-09T07:32:12.918Z,2.70
2019-05-09T07:33:27.710Z,2.03
2019-05-09T07:34:39.078Z,2.80
2019-05-09T07:35:43.189Z,2.47
2019-05-09T07:36:47.725Z,2.43
2019-05-09T07:37:51.940Z,2.43
2019-05-09T07:38:58.261Z,2.57
2019-05-09T07:40:01.972Z,2.80
2019-05-09T07:41:08.623Z,2.80
2019-05-09T07:42:11.984Z,2.30
2019-05-09T07:43:18.032Z,2.90
2019-05-09T07:44:22.025Z,2.50
2019-05-09T07:45:28.133Z,2.67
2019-05-09T07:46:33.700Z,2.17
2019-05-09T07:47:38.772Z,2.43
2019-05-09T07:48:43.964Z,2.42
2019-05-09T07:49:48.306Z,2.52
2019-05-09T07:50:52.529Z,2.43
2019-05-09T07:51:59.086Z,2.40
2019-05-09T07:53:02.500Z,2.27
2019-05-09T07:54:20.694Z,2.42
2019-05-09T07:55:12.525Z,2.58
2019-05-09T07:56:18.620Z,2.50
2019-05-09T07:57:22.503Z,2.77
2019-05-09T07:58:28.319Z,2.60
2019-05-09T07:59:32.640Z,2.92
2019-05-09T08:00:38.417Z,2.15
2019-05-09T08:01:42.693Z,2.25
2019-05-09T08:02:47.717Z,2.20
2019-05-09T08:03:51.851Z,2.20
2019-05-09T08:04:57.974Z,2.90
2019-05-09T08:06:01.935Z,2.95
2019-05-09T08:07:08.200Z,3.10
2019-05-09T08:08:18.625Z,2.87
2019-05-09T08:09:22.436Z,2.40
2019-05-09T08:10:30.587Z,2.20
2019-05-09T08:11:32.543Z,2.55
2019-05-09T08:12:38.893Z,2.50
2019-05-09T08:13:42.736Z,2.58
2019-05-09T08:15:06.692Z,2.17
2019-05-09T08:15:52.866Z,2.10
2019-05-09T08:16:58.009Z,2.27
2019-05-09T08:18:02.511Z,2.47
2019-05-09T08:19:07.479Z,2.00
2019-05-09T08:20:13.829Z,2.40
2019-05-09T08:21:18.249Z,1.98
2019-05-09T08:22:25.877Z,2.08
2019-05-09T08:23:28.443Z,2.30
2019-05-09T08:24:32.614Z,1.98
2019-05-09T08:25:38.270Z,2.40
2019-05-09T08:26:42.703Z,2.62
2019-05-09T08:27:48.271Z,2.37
2019-05-09T08:28:52.670Z,2.00
2019-05-09T08:29:58.391Z,2.12
2019-05-09T08:31:02.747Z,2.30
2019-05-09T08:32:07.529Z,2.02
2019-05-09T08:33:11.895Z,2.33
2019-05-09T08:34:18.450Z,2.20
2019-05-09T08:35:21.983Z,2.58
2019-05-09T08:36:28.158Z,2.37
2019-05-09T08:37:32.163Z,2.25
2019-05-09T08:38:38.853Z,2.70
2019-05-09T08:39:42.246Z,2.15
2019-05-09T08:40:48.413Z,2.00
2019-05-09T08:41:52.368Z,2.27
2019-05-09T08:42:58.749Z,2.42
2019-05-09T08:44:02.431Z,2.33
2019-05-09T08:45:17.329Z,2.40
2019-05-09T08:46:13.852Z,1.90
2019-05-09T08:47:18.540Z,2.52
2019-05-09T08:48:22.803Z,2.33
2019-05-09T08:49:33.561Z,1.87
2019-05-09T08:50:48.162Z,2.17
2019-05-09T08:52:10.060Z,2.10
2019-05-09T08:53:08.015Z,2.12
2019-05-09T08:54:30.531Z,2.87
2019-05-09T08:55:34.750Z,3.22
2019-05-09T08:56:39.009Z,2.30
2019-05-09T08:57:43.255Z,2.70
2019-05-09T08:58:48.477Z,2.60
2019-05-09T08:59:53.008Z,2.60
2019-05-09T09:01:03.564Z,2.80
2019-05-09T09:02:15.461Z,2.67
2019-05-09T09:03:09.320Z,2.70
2019-05-09T09:04:13.563Z,2.35
2019-05-09T09:05:18.751Z,3.00
2019-05-09T09:06:23.145Z,3.17
2019-05-09T09:07:29.677Z,2.45
2019-05-09T09:08:33.274Z,2.75
2019-05-09T09:09:38.008Z,2.83
2019-05-09T09:10:42.299Z,3.08
2019-05-09T09:11:47.857Z,2.83
2019-05-09T09:12:52.202Z,2.40
2019-05-09T09:13:57.645Z,2.50
2019-05-09T09:15:02.252Z,2.45
2019-05-09T09:16:15.707Z,1.95
2019-05-09T09:17:12.476Z,2.52
2019-05-09T09:18:17.998Z,2.10
2019-05-09T09:19:22.360Z,2.10
2019-05-09T09:20:28.837Z,1.67
2019-05-09T09:21:32.459Z,2.05
2019-05-09T09:22:37.561Z,1.87
2019-05-09T09:23:46.767Z,2.25
2019-05-09T09:24:48.302Z,1.90
2019-05-09T09:25:52.603Z,1.80
2019-05-09T09:26:57.403Z,1.62
2019-05-09T09:28:01.706Z,1.60
2019-05-09T09:29:08.217Z,1.67
2019-05-09T09:30:20.922Z,1.82
2019-05-09T09:31:18.094Z,1.70
2019-05-09T09:32:22.495Z,1.92
2019-05-09T09:33:27.985Z,1.98
2019-05-09T09:34:32.432Z,2.00
2019-05-09T09:35:38.258Z,1.70
2019-05-09T09:36:42.688Z,1.50
2019-05-09T09:37:51.374Z,1.75
2019-05-09T09:38:52.818Z,1.70
2019-05-09T09:39:58.215Z,1.65
2019-05-09T09:41:02.698Z,1.90
2019-05-09T09:42:09.049Z,2.27
2019-05-09T09:43:12.864Z,1.75
2019-05-09T09:44:18.225Z,2.08
2019-05-09T09:45:23.004Z,1.90
2019-05-09T09:46:28.531Z,2.05
2019-05-09T09:47:33.017Z,2.02
2019-05-09T09:48:38.860Z,2.12
2019-05-09T09:49:43.176Z,2.22
2019-05-09T09:50:51.262Z,1.82
2019-05-09T09:51:53.293Z,1.72
2019-05-09T09:52:58.927Z,1.70
2019-05-09T09:54:03.364Z,2.27
2019-05-09T09:55:08.955Z,2.08
2019-05-09T09:56:13.333Z,1.42
2019-05-09T09:57:19.088Z,2.05
2019-05-09T09:58:23.460Z,2.12
2019-05-09T09:59:34.113Z,2.00
2019-05-09T10:01:03.369Z,2.10
2019-05-09T10:02:10.312Z,2.00
2019-05-09T10:03:13.140Z,1.95
2019-05-09T10:04:23.981Z,1.87
2019-05-09T10:05:24.078Z,1.95
2019-05-09T10:06:28.527Z,1.32
2019-05-09T10:07:32.831Z,1.72
2019-05-09T10:08:39.605Z,2.00
2019-05-09T10:09:42.978Z,1.55
2019-05-09T10:10:48.297Z,1.70
2019-05-09T10:11:56.671Z,2.05
2019-05-09T10:13:03.862Z,2.08
2019-05-09T10:14:04.971Z,1.75
2019-05-09T10:15:27.929Z,1.95
2019-05-09T10:16:50.464Z,1.45
2019-05-09T10:18:08.626Z,2.05
2019-05-09T10:19:38.405Z,1.90
2019-05-09T10:20:48.463Z,1.45
2019-05-09T10:21:54.685Z,1.65
2019-05-09T10:23:10.141Z,1.75
2019-05-09T10:24:05.146Z,1.98
2019-05-09T10:25:09.387Z,1.70
2019-05-09T10:26:13.607Z,1.50
2019-05-09T10:27:18.625Z,1.72
2019-05-09T10:28:22.873Z,2.00
2019-05-09T10:29:27.894Z,2.08
2019-05-09T10:30:33.610Z,1.60
2019-05-09T10:31:39.231Z,1.45
2019-05-09T10:32:43.579Z,1.40
2019-05-09T10:33:48.331Z,1.80
2019-05-09T10:34:52.658Z,1.52
2019-05-09T10:36:03.181Z,1.80
2019-05-09T10:37:02.798Z,1.60
2019-05-09T10:38:08.771Z,1.72
2019-05-09T10:39:13.043Z,1.67
2019-05-09T10:40:22.499Z,1.77
2019-05-09T10:41:26.716Z,1.27
2019-05-09T10:42:38.036Z,1.17
2019-05-09T10:43:51.924Z,1.30
2019-05-09T10:45:15.113Z,1.35
2019-05-09T10:46:52.923Z,1.60
2019-05-09T10:47:50.258Z,1.77
2019-05-09T10:48:58.908Z,1.17
2019-05-09T10:50:03.162Z,1.40
2019-05-09T10:51:10.478Z,1.60
2019-05-09T10:52:14.507Z,1.60
2019-05-09T10:53:18.899Z,1.70
2019-05-09T10:54:23.155Z,1.62
2019-05-09T10:55:28.379Z,1.40
2019-05-09T10:56:32.697Z,1.30
2019-05-09T10:57:41.722Z,2.02
2019-05-09T10:58:42.906Z,1.45
2019-05-09T10:59:48.315Z,1.50
2019-05-09T11:00:52.687Z,1.10
2019-05-09T11:01:57.981Z,1.30
2019-05-09T11:03:02.410Z,1.45
2019-05-09T11:04:08.244Z,1.37
2019-05-09T11:05:12.507Z,1.60
2019-05-09T11:06:18.332Z,1.20
2019-05-09T11:07:22.583Z,1.40
2019-05-09T11:08:28.620Z,1.10
2019-05-09T11:09:32.710Z,1.77
2019-05-09T11:10:39.507Z,1.45
2019-05-09T11:11:42.920Z,1.90
2019-05-09T11:12:47.843Z,1.30
2019-05-09T11:13:52.162Z,1.75
2019-05-09T11:14:59.095Z,1.65
2019-05-09T11:16:02.304Z,1.40
2019-05-09T11:17:15.958Z,1.70
2019-05-09T11:18:13.216Z,1.52
2019-05-09T11:19:18.395Z,1.30
2019-05-09T11:20:22.740Z,1.55
2019-05-09T11:21:28.503Z,1.70
2019-05-09T11:22:32.796Z,1.75
2019-05-09T11:23:39.141Z,1.40
2019-05-09T11:24:48.179Z,1.80
2019-05-09T11:25:48.999Z,1.82
2019-05-09T11:26:53.236Z,1.57
2019-05-09T11:28:09.968Z,2.22
2019-05-09T11:29:03.345Z,1.40
2019-05-09T11:30:08.348Z,1.90
2019-05-09T11:31:12.962Z,1.30
2019-05-09T11:32:17.894Z,1.62
2019-05-09T11:33:22.277Z,12.18
2019-05-09T11:34:26.565Z,1.77
2019-05-09T11:35:30.783Z,1.35
2019-05-09T11:36:35.008Z,2.42
2019-05-09T11:37:39.221Z,2.37
2019-05-09T11:38:44.196Z,2.15
2019-05-09T11:39:48.638Z,4.45
2019-05-09T11:40:52.864Z,19.42
2019-05-09T11:41:58.532Z,6.17
2019-05-09T11:43:02.965Z,20.05
2019-05-09T11:44:08.619Z,2.17
2019-05-09T11:45:13.538Z,3.22
2019-05-09T11:46:18.183Z,2.75
2019-05-09T11:47:33.656Z,17.40
2019-05-09T11:48:28.568Z,3.75
2019-05-09T11:49:33.063Z,2.37
2019-05-09T11:50:38.833Z,1.55
2019-05-09T11:51:43.227Z,2.85
2019-05-09T11:52:49.119Z,1.95
2019-05-09T11:53:53.491Z,2.85
2019-05-09T11:54:58.093Z,9.20
2019-05-09T11:56:02.831Z,16.42
2019-05-09T11:57:07.671Z,1.80
2019-05-09T11:58:11.959Z,6.17
2019-05-09T11:59:18.251Z,19.90
2019-05-09T12:00:22.072Z,1.82
2019-05-09T12:01:28.982Z,4.40
2019-05-09T12:02:32.225Z,1.62
2019-05-09T12:03:38.676Z,1.40
2019-05-09T12:04:42.367Z,1.50
2019-05-09T12:05:47.610Z,24.50
2019-05-09T12:06:51.984Z,11.48
2019-05-09T12:07:58.155Z,2.67
2019-05-09T12:09:02.081Z,2.08
2019-05-09T12:10:07.848Z,2.40
2019-05-09T12:11:12.331Z,2.22
2019-05-09T12:12:16.544Z,1.90
2019-05-09T12:13:20.764Z,4.80
2019-05-09T12:14:27.484Z,2.00
2019-05-09T12:15:30.882Z,2.05
2019-05-09T12:16:37.463Z,4.80
2019-05-09T12:17:56.574Z,3.90
2019-05-09T12:18:48.811Z,6.35
2019-05-09T12:20:08.789Z,2.83
2019-05-09T12:20:58.612Z,3.58
2019-05-09T12:22:02.863Z,19.82
2019-05-09T12:23:07.882Z,7.97
2019-05-09T12:24:12.315Z,10.65
2019-05-09T12:25:18.390Z,8.03
2019-05-09T12:26:22.463Z,1.90
2019-05-09T12:27:28.044Z,2.58
2019-05-09T12:28:33.414Z,23.47
2019-05-09T12:29:38.721Z,22.98
2019-05-09T12:30:43.066Z,3.27
2019-05-09T12:31:48.520Z,6.67
2019-05-09T12:32:53.024Z,4.97
2019-05-09T12:33:59.210Z,3.27
2019-05-09T12:35:03.481Z,4.33
2019-05-09T12:36:09.240Z,3.40
2019-05-09T12:37:13.705Z,2.58
2019-05-09T12:38:18.359Z,7.33
2019-05-09T12:39:22.725Z,3.50
2019-05-09T12:40:26.987Z,1.57
2019-05-09T12:41:31.978Z,1.10
2019-05-09T12:42:38.792Z,1.40
2019-05-09T12:43:42.179Z,7.95
2019-05-09T12:44:46.387Z,1.50
2019-05-09T12:45:50.660Z,11.33
2019-05-09T12:46:54.967Z,3.95
2019-05-09T12:48:10.249Z,16.30
2019-05-09T12:49:04.980Z,1.98
2019-05-09T12:50:09.194Z,1.67
2019-05-09T12:51:13.414Z,10.72
2019-05-09T12:52:18.582Z,3.12
2019-05-09T12:53:22.989Z,3.52
2019-05-09T12:54:27.965Z,2.42
2019-05-09T12:55:32.363Z,1.47
2019-05-09T12:56:38.525Z,1.80
2019-05-09T12:57:42.633Z,2.30
2019-05-09T12:58:47.755Z,1.05
2019-05-09T12:59:53.034Z,1.10
2019-05-09T13:00:58.612Z,3.08
2019-05-09T13:02:02.899Z,6.90
2019-05-09T13:03:08.418Z,1.40
2019-05-09T13:04:13.059Z,3.95
2019-05-09T13:05:18.125Z,2.83
2019-05-09T13:06:22.569Z,1.98
2019-05-09T13:07:29.854Z,3.05
2019-05-09T13:08:32.684Z,2.05
2019-05-09T13:09:36.932Z,3.70
2019-05-09T13:10:41.193Z,1.62
2019-05-09T13:11:45.362Z,1.10
2019-05-09T13:12:49.855Z,2.60
2019-05-09T13:13:54.073Z,1.98
2019-05-09T13:14:58.898Z,1.07
2019-05-09T13:16:22.066Z,5.35
2019-05-09T13:17:30.842Z,3.10
2019-05-09T13:18:52.863Z,5.40
2019-05-09T13:19:58.595Z,13.53
2019-05-09T13:21:03.033Z,1.80
2019-05-09T13:22:08.129Z,3.37
2019-05-09T13:23:12.708Z,2.02
2019-05-09T13:24:19.618Z,2.58
2019-05-09T13:25:22.860Z,7.12
2019-05-09T13:26:28.819Z,1.65
2019-05-09T13:27:32.960Z,1.75
2019-05-09T13:28:37.795Z,1.57
2019-05-09T13:29:42.094Z,1.95
2019-05-09T13:30:48.728Z,4.87
2019-05-09T13:31:52.300Z,6.10
2019-05-09T13:32:56.525Z,1.02
2019-05-09T13:34:00.780Z,0.95
2019-05-09T13:35:05.254Z,1.77
2019-05-09T13:36:09.476Z,3.20
2019-05-09T13:37:14.007Z,1.07
2019-05-09T13:38:18.247Z,1.75
2019-05-09T13:39:22.505Z,1.57
2019-05-09T13:40:29.097Z,2.12
2019-05-09T13:41:32.621Z,1.50
2019-05-09T13:42:39.560Z,1.50
2019-05-09T13:43:47.535Z,3.17
2019-05-09T13:44:48.656Z,1.87
2019-05-09T13:45:52.899Z,1.32
2019-05-09T13:46:58.418Z,2.12
2019-05-09T13:48:02.941Z,2.30
2019-05-09T13:49:12.337Z,1.30
2019-05-09T13:50:13.098Z,2.20
2019-05-09T13:51:18.472Z,2.25
2019-05-09T13:52:22.931Z,2.30
2019-05-09T13:53:28.426Z,1.60
2019-05-09T13:54:32.731Z,1.52
2019-05-09T13:55:38.073Z,2.15
2019-05-09T13:56:42.616Z,2.27
2019-05-09T13:57:48.511Z,2.30
2019-05-09T13:58:52.639Z,2.20
2019-05-09T13:59:58.674Z,1.90
2019-05-09T14:01:02.966Z,2.23
2019-05-09T14:02:07.319Z,2.87
2019-05-09T14:03:11.556Z,10.20
2019-05-09T14:04:15.811Z,8.70
2019-05-09T14:05:20.055Z,5.17
2019-05-09T14:06:24.290Z,1.70
2019-05-09T14:07:28.494Z,1.93
2019-05-09T14:08:32.710Z,3.27
2019-05-09T14:09:38.583Z,2.87
2019-05-09T14:10:42.829Z,4.42
2019-05-09T14:11:47.976Z,1.80
2019-05-09T14:13:05.347Z,2.13
2019-05-09T14:13:58.282Z,3.47
2019-05-09T14:15:02.536Z,4.80
2019-05-09T14:16:16.921Z,3.27
2019-05-09T14:17:13.865Z,4.50
2019-05-09T14:18:19.069Z,1.60
2019-05-09T14:19:34.330Z,1.67
2019-05-09T14:20:29.372Z,8.77
2019-05-09T14:21:33.642Z,5.50
2019-05-09T14:22:38.622Z,1.70
2019-05-09T14:23:51.022Z,9.03
2019-05-09T14:24:48.952Z,9.50
2019-05-09T14:25:53.255Z,7.83
2019-05-09T14:26:58.169Z,2.63
2019-05-09T14:28:02.609Z,2.10
2019-05-09T14:29:06.844Z,1.60
2019-05-09T14:30:11.131Z,2.20
2019-05-09T14:31:15.388Z,2.73
2019-05-09T14:32:19.563Z,2.47
2019-05-09T14:33:23.976Z,3.53
2019-05-09T14:34:30.245Z,8.00
2019-05-09T14:35:34.319Z,2.43
2019-05-09T14:36:41.985Z,5.70
2019-05-09T14:37:44.354Z,1.70
2019-05-09T14:38:48.583Z,2.20
2019-05-09T14:39:58.391Z,1.30
2019-05-09T14:40:59.509Z,3.23
2019-05-09T14:42:03.828Z,5.77